Time;durP1;ratioP1;P1;durP2;ratioP2;P2;SDS_P1;SDS_P2;PMS_P1;PMS_P2;Temp;Humidity;BMP_temperature;BMP_pressure;BME280_temperature;BME280_humidity;BME280_pressure;Samples;Min_cycle;Max_cycle;Signal;HPM_P1;HPM_P2
2021/07/07 00:00:24;;;;;;;2.30;1.38;;;;;;;16.21;48.60;100820.91;7851453;29;20027;-71
2021/07/07 00:04:15;;;;;;;2.53;1.20;;;;;;;16.17;48.73;100815.06;7853193;28;20027;-71
2021/07/07 00:08:05;;;;;;;5.70;1.17;;;;;;;16.19;48.75;100823.72;7852576;28;20038;-72
2021/07/07 00:11:57;;;;;;;3.17;1.15;;;;;;;16.18;48.76;100819.38;7852273;29;20574;-72
2021/07/07 00:15:48;;;;;;;2.60;1.10;;;;;;;16.16;48.80;100816.84;7852246;28;20035;-72
2021/07/07 00:19:38;;;;;;;3.78;1.42;;;;;;;16.13;48.72;100806.53;7850458;29;20042;-72
2021/07/07 00:23:31;;;;;;;3.22;1.17;;;;;;;16.10;48.55;100809.44;7852060;28;20061;-72
2021/07/07 00:27:21;;;;;;;7.60;1.88;;;;;;;16.04;48.72;100801.19;7850089;28;20085;-71
2021/07/07 00:31:12;;;;;;;3.58;1.05;;;;;;;16.05;48.76;100802.88;7851791;29;20039;-72
2021/07/07 00:35:05;;;;;;;3.15;1.08;;;;;;;15.97;48.81;100808.03;7851264;28;20023;-71
2021/07/07 00:38:55;;;;;;;1.77;1.05;;;;;;;15.91;48.90;100795.34;7851356;28;20158;-71
2021/07/07 00:42:46;;;;;;;4.35;1.10;;;;;;;15.90;48.81;100806.91;7850479;28;20035;-72
2021/07/07 00:46:37;;;;;;;1.48;1.10;;;;;;;15.83;49.20;100798.66;7851153;28;20483;-72
2021/07/07 00:50:28;;;;;;;1.40;0.95;;;;;;;15.77;48.59;100799.22;7851220;29;20027;-71
2021/07/07 00:54:20;;;;;;;4.43;1.17;;;;;;;15.71;48.88;100799.75;7850960;29;20034;-72
2021/07/07 00:58:11;;;;;;;4.68;0.90;;;;;;;15.65;48.91;100797.66;7849244;28;20046;-71
2021/07/07 01:02:03;;;;;;;3.35;1.40;;;;;;;15.59;48.89;100796.38;7851228;29;20039;-72
2021/07/07 01:05:53;;;;;;;2.05;0.93;;;;;;;15.54;49.00;100795.13;7850269;28;20043;-73
2021/07/07 01:09:44;;;;;;;2.63;1.13;;;;;;;15.48;49.00;100801.78;7850501;29;20049;-72
2021/07/07 01:13:37;;;;;;;2.83;1.30;;;;;;;15.42;49.05;100804.97;7850037;28;20039;-73
2021/07/07 01:17:32;;;;;;;2.50;1.17;;;;;;;15.38;49.15;100797.41;7848957;28;20035;-71
2021/07/07 01:21:23;;;;;;;2.50;1.30;;;;;;;15.30;49.34;100792.81;7849141;29;20121;-72
2021/07/07 01:25:15;;;;;;;2.50;1.00;;;;;;;15.28;49.27;100803.50;7849847;28;20098;-72
2021/07/07 01:29:07;;;;;;;5.35;1.17;;;;;;;15.24;49.31;100814.50;7849755;29;20431;-71
2021/07/07 01:32:57;;;;;;;4.78;1.20;;;;;;;15.21;49.46;100802.34;7850204;29;20027;-72
2021/07/07 01:36:48;;;;;;;3.83;1.45;;;;;;;15.19;49.56;100806.94;7848472;28;20442;-73
2021/07/07 01:40:39;;;;;;;4.63;1.40;;;;;;;15.17;49.70;100816.81;7849564;28;20071;-72
2021/07/07 01:44:30;;;;;;;9.88;1.27;;;;;;;15.16;49.64;100809.88;7849201;28;20099;-72
2021/07/07 01:48:20;;;;;;;6.18;1.05;;;;;;;15.15;49.95;100815.28;7848307;28;20042;-72
2021/07/07 01:52:11;;;;;;;2.08;1.08;;;;;;;15.14;49.87;100819.72;7849272;28;20043;-72
2021/07/07 01:56:02;;;;;;;4.55;1.48;;;;;;;15.13;49.71;100825.97;7849274;28;20043;-73
2021/07/07 01:59:54;;;;;;;2.63;1.13;;;;;;;15.11;49.82;100821.81;7849129;28;20074;-73
2021/07/07 02:03:44;;;;;;;4.13;1.20;;;;;;;15.10;49.81;100828.06;7849211;29;20043;-72
2021/07/07 02:07:35;;;;;;;4.80;1.08;;;;;;;15.06;49.81;100822.19;7847086;28;20035;-71
2021/07/07 02:11:26;;;;;;;6.82;1.35;;;;;;;15.03;49.92;100813.69;7847640;29;20045;-71
2021/07/07 02:15:20;;;;;;;2.83;1.10;;;;;;;15.00;49.96;100808.66;7848615;28;20027;-72
2021/07/07 02:19:11;;;;;;;3.70;1.33;;;;;;;14.98;50.03;100802.66;7848549;28;20135;-72
2021/07/07 02:23:03;;;;;;;6.20;1.10;;;;;;;14.95;49.90;100801.13;7848758;28;20035;-73
2021/07/07 02:26:53;;;;;;;3.63;1.30;;;;;;;14.92;49.78;100803.19;7848661;28;20511;-72
2021/07/07 02:30:45;;;;;;;4.22;1.15;;;;;;;14.89;50.08;100803.44;7848400;29;20028;-72
2021/07/07 02:34:36;;;;;;;2.95;1.20;;;;;;;14.80;50.24;100790.03;7847723;29;20039;-73
2021/07/07 02:38:29;;;;;;;7.15;1.42;;;;;;;14.76;50.11;100793.06;7848783;28;20043;-72
2021/07/07 02:42:20;;;;;;;4.35;1.17;;;;;;;14.76;50.15;100801.84;7847209;29;20046;-73
2021/07/07 02:46:10;;;;;;;5.63;0.93;;;;;;;14.72;50.11;100802.22;7846660;28;20031;-73
2021/07/07 02:50:03;;;;;;;2.28;1.27;;;;;;;14.68;50.05;100811.38;7846933;29;20031;-73
2021/07/07 02:53:53;;;;;;;1.90;1.23;;;;;;;14.60;49.95;100804.09;7848355;29;20035;-73
2021/07/07 02:58:01;;;;;;;3.45;1.23;;;;;;;14.54;50.19;100803.78;7848272;28;20037;-73
2021/07/07 03:01:53;;;;;;;3.83;0.98;;;;;;;14.53;50.35;100812.66;7843607;29;20035;-72
2021/07/07 03:05:52;;;;;;;2.70;1.20;;;;;;;14.46;50.20;100811.53;7845196;28;20068;-74
2021/07/07 03:09:42;;;;;;;2.88;1.17;;;;;;;14.42;50.28;100821.47;7852710;29;20526;-73
2021/07/07 03:13:33;;;;;;;5.13;1.55;;;;;;;14.38;50.33;100812.94;7853525;29;20031;-72
2021/07/07 03:17:24;;;;;;;3.25;0.93;;;;;;;14.34;50.32;100814.16;7853998;28;20031;-72
2021/07/07 03:21:15;;;;;;;2.25;1.40;;;;;;;14.29;50.42;100823.44;7852309;29;20043;-73
2021/07/07 03:25:06;;;;;;;1.98;1.13;;;;;;;14.26;50.32;100829.81;7853573;28;20019;-72
2021/07/07 03:28:57;;;;;;;2.03;1.00;;;;;;;14.23;50.38;100829.22;7853735;28;20094;-73
2021/07/07 03:32:47;;;;;;;2.65;1.20;;;;;;;14.18;50.56;100834.88;7853164;28;20034;-71
2021/07/07 03:36:38;;;;;;;2.92;1.35;;;;;;;14.13;50.57;100831.78;7852015;28;20531;-72
2021/07/07 03:40:31;;;;;;;6.65;1.23;;;;;;;14.07;50.42;100845.50;7852692;28;20510;-72
2021/07/07 03:44:22;;;;;;;1.42;1.05;;;;;;;14.05;50.71;100857.97;7852085;29;20042;-72
2021/07/07 03:48:12;;;;;;;3.20;1.08;;;;;;;13.97;50.48;100843.69;7835295;29;20027;-72
2021/07/07 03:52:04;;;;;;;2.35;1.10;;;;;;;13.99;50.80;100860.28;7852996;29;20035;-72
2021/07/07 03:55:54;;;;;;;6.30;1.88;;;;;;;13.99;50.71;100865.56;7852512;28;20384;-72
2021/07/07 03:59:46;;;;;;;2.83;1.08;;;;;;;13.97;50.80;100875.38;7853450;29;20483;-72
2021/07/07 04:03:37;;;;;;;1.83;0.85;;;;;;;13.96;50.85;100879.03;7851903;28;20054;-72
2021/07/07 04:07:28;;;;;;;5.35;1.30;;;;;;;13.90;51.15;100875.06;7852244;28;20045;-72
2021/07/07 04:11:18;;;;;;;4.93;1.20;;;;;;;13.95;50.91;100887.91;7852378;28;20023;-72
2021/07/07 04:15:11;;;;;;;3.58;1.10;;;;;;;13.94;51.17;100894.97;7852014;28;20033;-72
2021/07/07 04:19:02;;;;;;;4.50;1.25;;;;;;;13.96;51.11;100898.34;7852642;28;20107;-72
2021/07/07 04:22:53;;;;;;;3.88;1.35;;;;;;;13.99;51.49;100903.38;7852219;29;20042;-73
2021/07/07 04:26:44;;;;;;;3.28;1.42;;;;;;;13.97;51.19;100896.53;7852021;28;20927;-73
2021/07/07 04:30:35;;;;;;;4.80;2.00;;;;;;;14.03;51.43;100907.44;7852041;28;20046;-72
2021/07/07 04:34:26;;;;;;;3.17;1.27;;;;;;;14.03;51.50;100904.81;7851793;28;20043;-72
2021/07/07 04:38:17;;;;;;;3.30;1.48;;;;;;;14.14;51.66;100919.78;7851541;28;20037;-72
2021/07/07 04:42:08;;;;;;;5.38;1.58;;;;;;;14.21;51.64;100921.00;7851257;29;20035;-72
2021/07/07 04:45:58;;;;;;;6.57;1.10;;;;;;;14.30;51.79;100909.66;7849259;28;20047;-73
2021/07/07 04:49:49;;;;;;;5.40;2.28;;;;;;;14.44;51.95;100916.50;7849911;29;20054;-72
2021/07/07 04:53:39;;;;;;;6.32;1.58;;;;;;;14.58;52.23;100908.31;7850532;28;20058;-73
2021/07/07 04:57:40;;;;;;;2.60;1.25;;;;;;;14.80;52.04;100909.03;7850858;28;20577;-73
2021/07/07 05:01:31;;;;;;;4.85;1.15;;;;;;;15.16;52.13;100906.94;7850613;29;20028;-71
2021/07/07 05:05:21;;;;;;;4.68;1.65;;;;;;;15.65;52.44;100906.22;7850632;28;20053;-71
2021/07/07 05:09:12;;;;;;;3.05;1.35;;;;;;;16.32;52.58;100914.41;7850542;28;20082;-71
2021/07/07 05:13:07;;;;;;;7.38;1.70;;;;;;;16.81;52.43;100923.22;7850971;28;20398;-71
2021/07/07 05:16:57;;;;;;;4.00;1.20;;;;;;;16.96;51.63;100916.53;7850447;28;20039;-70
2021/07/07 05:20:48;;;;;;;3.08;1.10;;;;;;;17.00;51.70;100915.28;7852317;28;20596;-71
2021/07/07 05:24:39;;;;;;;5.90;1.70;;;;;;;17.00;51.57;100917.94;7849169;29;20114;-71
2021/07/07 05:28:30;;;;;;;3.60;1.63;;;;;;;16.97;51.36;100912.91;7848332;28;20035;-70
2021/07/07 05:32:21;;;;;;;3.78;1.30;;;;;;;17.00;51.46;100924.06;7849950;29;20126;-71
2021/07/07 05:36:12;;;;;;;5.10;1.33;;;;;;;16.95;51.44;100920.16;7849851;28;20042;-71
2021/07/07 05:40:03;;;;;;;3.25;1.40;;;;;;;16.89;51.25;100923.34;7849135;29;20031;-70
2021/07/07 05:43:54;;;;;;;8.93;1.30;;;;;;;16.83;51.38;100918.59;7849299;29;20039;-71
2021/07/07 05:47:45;;;;;;;4.95;1.73;;;;;;;16.75;51.48;100919.31;7848309;28;20097;-71
2021/07/07 05:51:36;;;;;;;3.15;1.80;;;;;;;16.68;51.72;100923.50;7849580;28;20035;-70
2021/07/07 05:55:28;;;;;;;5.25;2.03;;;;;;;16.72;51.84;100939.97;7849386;28;20458;-71
2021/07/07 05:59:19;;;;;;;4.05;1.30;;;;;;;16.70;51.89;100939.28;7849464;29;20035;-71
2021/07/07 06:03:10;;;;;;;3.75;1.02;;;;;;;16.69;51.94;100934.94;7847848;28;20035;-70
2021/07/07 06:07:01;;;;;;;7.28;1.10;;;;;;;16.71;52.09;100947.09;7846385;28;20031;-71
2021/07/07 06:10:51;;;;;;;5.00;1.48;;;;;;;16.75;52.33;100947.66;7849177;29;20093;-70
2021/07/07 06:14:42;;;;;;;3.35;1.67;;;;;;;16.81;52.37;100952.41;7848870;28;20046;-71
2021/07/07 06:18:33;;;;;;;4.95;1.30;;;;;;;16.91;52.43;100958.53;7848749;28;20062;-71
2021/07/07 06:22:24;;;;;;;5.63;1.35;;;;;;;17.11;52.27;100964.72;7848888;28;20046;-71
2021/07/07 06:26:14;;;;;;;4.50;1.38;;;;;;;17.82;52.30;100974.75;7848771;28;20039;-71
2021/07/07 06:30:07;;;;;;;3.55;1.20;;;;;;;18.41;52.04;100963.69;7849028;29;20042;-71
2021/07/07 06:33:58;;;;;;;3.53;1.27;;;;;;;19.02;52.17;100965.63;7848639;29;20130;-71
2021/07/07 06:37:50;;;;;;;3.97;1.23;;;;;;;20.30;51.39;100963.13;7847854;28;20027;-71
2021/07/07 06:41:40;;;;;;;9.15;2.05;;;;;;;21.76;50.42;100956.81;7855172;28;20035;-71
2021/07/07 06:45:36;;;;;;;2.17;1.02;;;;;;;23.19;49.48;100961.72;7854635;28;20053;-72
2021/07/07 06:49:27;;;;;;;12.00;1.27;;;;;;;24.42;48.20;100952.09;7855055;28;20067;-71
2021/07/07 06:53:18;;;;;;;3.53;1.48;;;;;;;25.50;46.70;100963.47;7853577;29;20034;-72
2021/07/07 06:57:09;;;;;;;6.00;1.67;;;;;;;26.44;45.80;100959.16;7854459;28;20047;-71
2021/07/07 07:01:00;;;;;;;3.63;1.33;;;;;;;27.42;44.63;100958.47;7853226;29;20058;-72
2021/07/07 07:04:50;;;;;;;3.78;1.20;;;;;;;28.29;43.59;100968.84;7854674;28;20035;-72
2021/07/07 07:08:41;;;;;;;4.20;1.50;;;;;;;29.11;42.49;100962.47;7854292;28;20038;-73
2021/07/07 07:12:32;;;;;;;6.22;1.27;;;;;;;29.88;41.24;100961.09;7854038;29;20031;-73
2021/07/07 07:16:23;;;;;;;4.72;1.65;;;;;;;30.61;40.08;100961.84;7853739;28;20620;-74
2021/07/07 07:20:16;;;;;;;5.13;1.30;;;;;;;31.23;39.21;100965.88;7854068;29;20663;-73
2021/07/07 07:24:07;;;;;;;3.15;1.27;;;;;;;31.75;38.26;100965.97;7853713;29;20590;-73
2021/07/07 07:27:58;;;;;;;11.38;1.50;;;;;;;32.33;37.36;100980.25;7868357;28;20050;-74
2021/07/07 07:31:49;;;;;;;10.88;1.45;;;;;;;32.75;36.30;100980.78;7853334;28;20093;-74
2021/07/07 07:35:42;;;;;;;2.15;1.05;;;;;;;33.16;35.45;100987.75;7836131;28;20046;-73
2021/07/07 07:39:45;;;;;;;13.93;1.50;;;;;;;33.59;34.73;100987.06;7853465;29;20027;-74
2021/07/07 07:43:37;;;;;;;5.50;1.30;;;;;;;33.95;33.77;100985.66;7852885;29;20069;-73
2021/07/07 07:47:28;;;;;;;2.95;1.38;;;;;;;34.27;33.41;101004.81;7852725;28;20126;-74
2021/07/07 07:51:18;;;;;;;9.70;1.70;;;;;;;34.62;32.68;100999.78;7852794;28;20045;-74
2021/07/07 07:55:10;;;;;;;6.72;1.55;;;;;;;34.95;32.06;101001.47;7852807;28;20542;-74
2021/07/07 07:59:01;;;;;;;3.50;1.08;;;;;;;35.22;31.34;100995.16;7852829;28;20032;-73
2021/07/07 08:02:52;;;;;;;5.25;1.38;;;;;;;35.51;30.66;100991.78;7853231;28;20525;-73
2021/07/07 08:06:43;;;;;;;2.90;0.95;;;;;;;35.75;29.90;101003.16;7852105;28;20063;-74
2021/07/07 08:10:34;;;;;;;3.25;1.50;;;;;;;35.87;29.53;101000.22;7851225;29;20027;-73
2021/07/07 08:14:25;;;;;;;1.67;0.98;;;;;;;36.06;29.06;100995.94;7852350;29;21035;-73
2021/07/07 08:18:15;;;;;;;5.93;1.77;;;;;;;36.33;28.35;101004.75;7852461;28;20019;-73
2021/07/07 08:22:06;;;;;;;7.13;2.00;;;;;;;36.52;28.37;100996.91;7851811;28;20081;-73
2021/07/07 08:25:56;;;;;;;2.40;1.10;;;;;;;36.72;27.96;100999.69;7851843;28;20439;-74
2021/07/07 08:29:47;;;;;;;3.97;1.65;;;;;;;36.88;27.43;100995.06;7852371;28;20031;-73
2021/07/07 08:33:38;;;;;;;2.40;1.25;;;;;;;37.01;26.49;100994.50;7852111;29;20037;-74
2021/07/07 08:37:28;;;;;;;2.92;1.15;;;;;;;37.07;26.73;100998.91;7850524;28;20047;-74
2021/07/07 08:41:20;;;;;;;5.72;1.30;;;;;;;37.10;26.39;100998.34;7852405;28;20077;-75
2021/07/07 08:45:15;;;;;;;6.13;1.33;;;;;;;37.13;25.53;100994.22;7850927;28;20038;-73
2021/07/07 08:49:06;;;;;;;3.65;1.15;;;;;;;37.05;25.67;101003.81;7850442;29;20538;-74
2021/07/07 08:53:00;;;;;;;3.20;1.35;;;;;;;36.76;25.91;101005.41;7851946;29;20862;-73
2021/07/07 08:56:51;;;;;;;2.67;1.10;;;;;;;36.51;25.53;101010.84;7850932;28;20031;-74
2021/07/07 09:00:41;;;;;;;4.38;1.45;;;;;;;36.17;25.97;101010.47;7850343;28;20069;-74
2021/07/07 09:04:43;;;;;;;1.98;1.17;;;;;;;35.63;25.88;101023.59;7850453;29;20038;-74
2021/07/07 09:08:36;;;;;;;1.92;1.05;;;;;;;35.09;26.51;101015.50;7850986;28;20541;-74
2021/07/07 09:12:29;;;;;;;2.90;1.40;;;;;;;34.56;26.57;101024.53;7850614;28;20046;-74
2021/07/07 09:16:19;;;;;;;1.58;0.82;;;;;;;33.97;27.13;101026.28;7850366;28;20411;-73
2021/07/07 09:20:33;;;;;;;4.32;1.50;;;;;;;33.32;27.75;101019.56;7850668;29;20565;-74
2021/07/07 09:24:25;;;;;;;5.15;1.63;;;;;;;32.77;27.83;101013.97;7833320;29;20042;-73
2021/07/07 09:28:24;;;;;;;2.95;0.95;;;;;;;32.11;28.45;101019.22;7850019;28;20042;-74
2021/07/07 09:32:27;;;;;;;1.13;0.80;;;;;;;31.38;28.41;101041.41;7850151;28;20046;-73
2021/07/07 09:36:20;;;;;;;4.68;1.40;;;;;;;30.73;28.85;101038.66;7850131;28;20066;-74
2021/07/07 09:40:12;;;;;;;1.98;1.02;;;;;;;30.28;28.80;101034.63;7850121;29;20062;-74
2021/07/07 09:44:03;;;;;;;4.28;1.13;;;;;;;29.84;29.77;101038.44;7849576;29;20045;-74
2021/07/07 09:47:53;;;;;;;2.90;1.40;;;;;;;29.52;29.60;101038.50;7849774;28;20035;-74
2021/07/07 09:51:49;;;;;;;2.10;1.10;;;;;;;29.25;29.61;101046.00;7849695;28;20058;-73
2021/07/07 09:55:41;;;;;;;5.45;1.10;;;;;;;29.06;29.79;101052.38;7849238;28;20035;-73
2021/07/07 09:59:32;;;;;;;2.00;0.93;;;;;;;28.81;29.73;101051.50;7849535;29;20031;-74
2021/07/07 10:03:23;;;;;;;2.97;1.20;;;;;;;28.50;30.15;101054.97;7849065;29;20296;-74
2021/07/07 10:07:14;;;;;;;1.63;1.02;;;;;;;28.27;30.71;101054.63;7849521;28;20066;-74
2021/07/07 10:11:06;;;;;;;1.20;0.90;;;;;;;28.11;30.36;101055.09;7848752;28;20035;-74
2021/07/07 10:14:57;;;;;;;2.58;1.00;;;;;;;27.91;30.49;101052.44;7847071;28;20027;-73
2021/07/07 10:18:48;;;;;;;2.80;1.13;;;;;;;27.71;30.39;101054.34;7832149;29;20069;-74
2021/07/07 10:22:40;;;;;;;4.60;1.60;;;;;;;27.61;30.60;101064.69;7847854;29;20039;-73
2021/07/07 10:26:32;;;;;;;2.17;1.05;;;;;;;27.45;30.90;101068.66;7848755;28;20027;-73
2021/07/07 10:30:54;;;;;;;2.40;1.17;;;;;;;27.32;31.22;101060.53;7863808;28;20447;-72
2021/07/07 10:34:46;;;;;;;3.97;1.52;;;;;;;27.31;31.11;101069.66;7848425;28;20437;-72
2021/07/07 10:38:37;;;;;;;2.97;1.02;;;;;;;27.25;31.23;101070.50;7848699;28;20700;-72
2021/07/07 10:42:43;;;;;;;2.50;1.13;;;;;;;27.19;31.41;101074.00;7848872;29;20062;-71
2021/07/07 10:46:52;;;;;;;6.55;1.38;;;;;;;27.12;31.51;101068.63;7850496;28;20090;-72
2021/07/07 10:50:43;;;;;;;5.28;1.02;;;;;;;27.22;31.12;101073.63;7847211;29;20043;-72
2021/07/07 10:54:39;;;;;;;4.55;1.20;;;;;;;27.20;31.35;101089.16;7848348;29;20052;-72
2021/07/07 10:58:31;;;;;;;1.05;0.80;;;;;;;27.14;31.28;101085.41;7848519;28;20027;-72
2021/07/07 11:02:24;;;;;;;2.40;0.95;;;;;;;27.13;31.35;101094.56;7848377;29;20039;-71
2021/07/07 11:06:21;;;;;;;2.70;1.38;;;;;;;27.11;31.36;101090.38;7848312;28;20039;-72
2021/07/07 11:10:14;;;;;;;;;;;;;;;26.91;32.44;101090.31;7848920;28;20035;-71
2021/07/07 11:14:20;;;;;;;2.78;1.20;;;;;;;26.98;31.78;101092.00;7848107;28;19914;-72
2021/07/07 11:18:22;;;;;;;1.33;0.85;;;;;;;26.96;31.69;101098.63;7848353;28;20028;-72
2021/07/07 11:22:16;;;;;;;2.40;0.80;;;;;;;26.89;31.48;101101.28;7848262;28;20027;-71
2021/07/07 11:26:08;;;;;;;6.30;1.60;;;;;;;26.84;31.81;101100.25;7850152;28;20038;-72
2021/07/07 11:29:59;;;;;;;2.38;0.80;;;;;;;26.77;31.80;101094.81;7853744;28;20034;-71
2021/07/07 11:33:58;;;;;;;3.55;1.23;;;;;;;26.76;31.78;101097.75;7853239;28;20070;-72
2021/07/07 11:37:54;;;;;;;1.60;0.80;;;;;;;26.83;31.81;101106.66;7853472;28;20315;-72
2021/07/07 11:41:45;;;;;;;1.70;0.90;;;;;;;26.85;32.42;101113.50;7853522;29;20039;-72
2021/07/07 11:45:49;;;;;;;2.28;1.10;;;;;;;26.83;32.18;101112.06;7853025;28;20109;-72
2021/07/07 11:49:40;;;;;;;2.17;1.30;;;;;;;26.73;32.01;101115.13;7839357;29;20042;-72
2021/07/07 11:53:38;;;;;;;1.60;1.00;;;;;;;26.70;32.00;101109.31;7851417;29;20035;-72
2021/07/07 11:57:28;;;;;;;2.38;1.00;;;;;;;26.69;31.98;101116.56;7852975;28;20039;-72
2021/07/07 12:01:22;;;;;;;3.47;1.05;;;;;;;26.64;32.02;101112.84;7851482;29;20027;-72
2021/07/07 12:05:13;;;;;;;1.63;0.98;;;;;;;26.55;31.67;101120.25;7852503;28;20512;-71
2021/07/07 12:09:19;;;;;;;7.53;1.10;;;;;;;26.43;31.83;101114.53;7852517;28;20028;-72
2021/07/07 12:13:19;;;;;;;1.50;0.95;;;;;;;26.40;32.24;101114.94;7866322;28;20031;-72
2021/07/07 12:17:10;;;;;;;4.50;0.80;;;;;;;26.42;32.14;101115.59;7847461;28;20054;-71
2021/07/07 12:21:00;;;;;;;4.47;1.00;;;;;;;26.42;32.06;101112.91;7819175;29;20043;-72
2021/07/07 12:24:51;;;;;;;3.65;1.25;;;;;;;26.43;32.07;101117.22;7852108;28;20684;-72
2021/07/07 12:28:42;;;;;;;0.57;0.57;;;;;;;26.45;32.27;101117.88;7851982;29;20035;-72
2021/07/07 12:32:33;;;;;;;3.40;1.15;;;;;;;26.43;32.05;101111.03;7850769;29;20042;-72
2021/07/07 12:36:31;;;;;;;2.03;1.08;;;;;;;26.35;32.17;101113.91;7850539;28;20035;-72
2021/07/07 12:40:22;;;;;;;6.47;1.30;;;;;;;26.29;32.30;101118.22;7857536;28;20038;-72
2021/07/07 12:44:14;;;;;;;0.80;0.80;;;;;;;26.22;32.19;101114.66;7848537;28;20039;-72
2021/07/07 12:48:06;;;;;;;1.15;0.80;;;;;;;26.12;32.47;101114.16;7850900;28;20043;-72
2021/07/07 12:52:12;;;;;;;4.15;0.85;;;;;;;26.03;32.08;101131.50;7851443;28;20031;-72
2021/07/07 12:56:08;;;;;;;0.55;0.50;;;;;;;26.01;32.10;101122.81;7843652;28;20035;-72
2021/07/07 12:59:59;;;;;;;2.17;1.15;;;;;;;25.99;32.29;101130.19;7849012;28;20046;-72
2021/07/07 13:03:49;;;;;;;2.13;1.10;;;;;;;25.93;32.53;101121.06;7851030;29;20557;-72
2021/07/07 13:07:42;;;;;;;2.13;1.08;;;;;;;26.04;32.53;101138.56;7849248;28;20054;-72
2021/07/07 13:11:33;;;;;;;3.85;1.17;;;;;;;26.04;32.28;101143.94;7850697;29;20395;-72
2021/07/07 13:15:23;;;;;;;1.75;0.80;;;;;;;26.02;32.67;101141.44;7844224;28;20590;-72
2021/07/07 13:19:25;;;;;;;3.40;1.20;;;;;;;26.00;32.38;101145.34;7850453;29;20039;-71
2021/07/07 13:23:24;;;;;;;1.42;1.00;;;;;;;25.92;32.41;101138.22;7834751;29;20027;-72
2021/07/07 13:27:17;;;;;;;3.85;0.98;;;;;;;25.94;32.26;101148.78;7850420;28;20031;-72
2021/07/07 13:31:12;;;;;;;1.63;0.85;;;;;;;25.92;32.85;101146.31;7850518;28;20090;-72
2021/07/07 13:35:06;;;;;;;2.67;0.98;;;;;;;25.92;32.33;101156.22;7850170;28;20035;-72
2021/07/07 13:39:07;;;;;;;1.67;0.73;;;;;;;25.87;32.67;101159.50;7848801;29;20558;-72
2021/07/07 13:42:58;;;;;;;4.22;0.80;;;;;;;25.83;32.70;101162.78;7850132;29;20031;-72
2021/07/07 13:46:49;;;;;;;4.10;1.10;;;;;;;25.77;33.13;101160.88;7848571;28;20039;-72
2021/07/07 13:50:39;;;;;;;1.30;0.95;;;;;;;25.76;32.83;101153.81;7850230;29;20044;-72
2021/07/07 13:54:30;;;;;;;2.92;0.90;;;;;;;25.77;33.17;101144.75;7849140;29;20039;-72
2021/07/07 13:58:21;;;;;;;3.22;1.10;;;;;;;25.84;33.00;101153.69;7845374;28;20026;-72
2021/07/07 14:02:11;;;;;;;2.65;1.35;;;;;;;25.86;33.26;101162.38;7849344;28;20046;-72
2021/07/07 14:06:02;;;;;;;1.42;0.90;;;;;;;25.86;32.92;101154.31;7847483;28;20058;-72
2021/07/07 14:09:52;;;;;;;2.33;1.25;;;;;;;25.85;33.05;101152.66;7845199;28;20035;-71
2021/07/07 14:13:43;;;;;;;2.10;1.10;;;;;;;25.82;33.23;101156.56;7848096;29;20486;-72
2021/07/07 14:17:34;;;;;;;3.97;0.82;;;;;;;25.80;33.33;101145.19;7848923;28;20711;-72
2021/07/07 14:21:24;;;;;;;5.45;1.45;;;;;;;25.85;32.90;101147.28;7848045;29;20034;-72
2021/07/07 14:25:15;;;;;;;3.88;1.10;;;;;;;25.78;32.81;101159.84;7848576;28;20080;-71
2021/07/07 14:29:06;;;;;;;1.40;0.90;;;;;;;25.70;33.12;101155.44;7853376;28;20035;-72
2021/07/07 14:32:57;;;;;;;5.20;1.55;;;;;;;25.66;33.34;101165.75;7848693;28;20027;-72
2021/07/07 14:36:47;;;;;;;2.08;1.00;;;;;;;25.63;32.93;101157.22;7843577;28;20031;-72
2021/07/07 14:40:38;;;;;;;1.00;0.80;;;;;;;25.58;33.17;101157.81;7848817;29;20032;-71
2021/07/07 14:44:28;;;;;;;9.27;0.90;;;;;;;25.51;33.37;101156.94;7848365;28;20039;-71
2021/07/07 14:48:21;;;;;;;3.95;1.08;;;;;;;25.43;33.63;101151.66;7847791;28;20027;-71
2021/07/07 14:52:11;;;;;;;2.45;0.98;;;;;;;25.27;33.50;101135.75;7848465;28;20039;-71
2021/07/07 14:56:02;;;;;;;1.30;0.90;;;;;;;25.27;33.09;101150.00;7847740;28;20037;-72
2021/07/07 14:59:53;;;;;;;1.15;0.77;;;;;;;25.25;33.20;101157.44;7848663;28;20031;-71
2021/07/07 15:03:43;;;;;;;0.90;0.88;;;;;;;25.25;33.53;101154.75;7846109;29;20376;-71
2021/07/07 15:07:35;;;;;;;4.22;1.10;;;;;;;25.26;33.00;101144.84;7854299;28;20042;-71
2021/07/07 15:11:25;;;;;;;3.13;1.00;;;;;;;25.27;33.12;101145.69;7854151;28;20058;-72
2021/07/07 15:15:16;;;;;;;0.75;0.75;;;;;;;25.25;32.95;101140.47;7853620;28;20069;-72
2021/07/07 15:19:06;;;;;;;1.02;0.93;;;;;;;25.19;33.34;101151.97;7860578;28;20066;-71
2021/07/07 15:22:57;;;;;;;2.22;0.98;;;;;;;25.16;33.66;101152.38;7857025;28;20510;-72
2021/07/07 15:26:48;;;;;;;2.50;1.30;;;;;;;25.18;33.43;101147.66;7853584;28;20043;-71
2021/07/07 15:30:38;;;;;;;1.17;0.75;;;;;;;25.13;33.57;101125.88;7855747;28;20376;-71
2021/07/07 15:34:29;;;;;;;3.40;1.05;;;;;;;25.23;33.56;101135.28;7853275;28;20110;-72
2021/07/07 15:38:20;;;;;;;2.70;0.77;;;;;;;25.24;33.50;101144.19;7853041;28;20032;-72
2021/07/07 15:42:15;;;;;;;0.80;0.80;;;;;;;25.18;33.02;101143.13;7853474;28;20422;-71
2021/07/07 15:46:08;;;;;;;1.83;1.05;;;;;;;25.10;33.18;101148.63;7847614;28;20031;-72
2021/07/07 15:49:59;;;;;;;1.08;0.90;;;;;;;25.06;33.15;101146.50;7857803;28;20035;-72
2021/07/07 15:53:49;;;;;;;0.70;0.70;;;;;;;25.05;33.47;101152.88;7864980;28;20725;-72
2021/07/07 15:57:40;;;;;;;2.45;0.90;;;;;;;25.03;33.16;101157.59;7852771;28;20027;-71
2021/07/07 16:01:30;;;;;;;4.22;0.90;;;;;;;25.04;33.45;101159.25;7852807;28;20045;-71
2021/07/07 16:05:21;;;;;;;1.20;0.80;;;;;;;25.06;33.53;101159.94;7852527;28;20571;-72
2021/07/07 16:09:12;;;;;;;2.05;1.05;;;;;;;25.01;33.64;101165.03;7854794;29;20806;-70
2021/07/07 16:13:03;;;;;;;3.42;0.70;;;;;;;24.95;33.67;101166.59;7852382;28;20661;-71
2021/07/07 16:16:54;;;;;;;2.60;1.08;;;;;;;24.83;33.51;101159.19;7852211;28;20043;-71
2021/07/07 16:20:45;;;;;;;2.85;0.85;;;;;;;24.82;33.80;101163.72;7851703;28;20034;-71
2021/07/07 16:24:35;;;;;;;2.00;0.88;;;;;;;24.80;33.79;101169.28;7852010;28;20117;-71
2021/07/07 16:28:26;;;;;;;1.25;1.10;;;;;;;24.77;33.50;101167.00;7850262;28;20600;-72
2021/07/07 16:32:16;;;;;;;2.53;1.15;;;;;;;24.70;33.72;101158.00;7850973;28;20035;-71
2021/07/07 16:36:07;;;;;;;3.15;0.88;;;;;;;24.64;33.33;101150.69;7851608;28;20035;-72
2021/07/07 16:39:58;;;;;;;2.30;1.00;;;;;;;24.65;33.90;101162.28;7852174;28;20082;-71
2021/07/07 16:43:48;;;;;;;1.70;1.10;;;;;;;24.64;33.79;101172.19;7850698;28;20046;-71
2021/07/07 16:47:39;;;;;;;1.58;1.00;;;;;;;24.61;33.82;101167.16;7850070;28;20057;-70
2021/07/07 16:51:30;;;;;;;2.30;1.05;;;;;;;24.58;33.77;101172.06;7850932;28;20039;-71
2021/07/07 16:55:21;;;;;;;1.17;0.93;;;;;;;24.54;33.44;101171.63;7849784;28;20038;-72
2021/07/07 16:59:11;;;;;;;3.17;1.25;;;;;;;24.50;33.81;101178.38;7840681;28;20027;-70
2021/07/07 17:03:03;;;;;;;1.77;1.00;;;;;;;24.49;34.11;101165.13;7853753;28;20394;-71
2021/07/07 17:06:53;;;;;;;1.88;0.90;;;;;;;24.44;33.59;101171.09;7853855;28;20596;-70
2021/07/07 17:10:44;;;;;;;1.95;0.82;;;;;;;24.40;34.14;101168.94;7844787;29;20730;-71
2021/07/07 17:14:35;;;;;;;0.90;0.90;;;;;;;24.35;33.70;101166.81;7850689;28;20042;-72
2021/07/07 17:18:26;;;;;;;0.82;0.70;;;;;;;24.35;33.98;101177.56;7858770;28;20648;-72
2021/07/07 17:22:16;;;;;;;1.75;0.90;;;;;;;24.31;33.77;101181.63;7849941;28;20047;-72
2021/07/07 17:26:07;;;;;;;2.72;0.90;;;;;;;24.22;34.01;101186.22;7850425;28;20093;-72
2021/07/07 17:29:58;;;;;;;1.63;0.85;;;;;;;24.19;34.22;101197.31;7848999;29;20118;-73
2021/07/07 17:33:49;;;;;;;3.60;1.00;;;;;;;24.14;33.83;101196.19;7849966;29;20042;-72
2021/07/07 17:37:39;;;;;;;1.67;0.82;;;;;;;24.09;33.93;101204.78;7849748;28;20384;-73
2021/07/07 17:41:30;;;;;;;1.80;0.90;;;;;;;24.00;34.31;101196.97;7850188;29;20653;-73
2021/07/07 17:45:21;;;;;;;1.83;1.10;;;;;;;23.98;34.14;101213.28;7848876;28;20378;-71
2021/07/07 17:49:11;;;;;;;2.33;1.13;;;;;;;23.88;33.63;101202.78;7854765;28;20031;-71
2021/07/07 17:53:03;;;;;;;1.83;0.85;;;;;;;23.81;33.90;101215.25;7849900;29;20403;-71
2021/07/07 17:56:54;;;;;;;1.70;1.00;;;;;;;23.75;33.94;101220.47;7849379;28;20041;-70